sensor_id;sensor_type;location;lat;lon;timestamp;pressure;altitude;pressure_sealevel;temperature;humidity
6433;BME280;3249;42.690;23.260;2022-08-20T00:01:49;94110.06;;;22.67;100.00
6433;BME280;3249;42.690;23.260;2022-08-20T00:04:14;94118.41;;;22.69;100.00
6433;BME280;3249;42.690;23.260;2022-08-20T00:06:40;94123.84;;;22.73;100.00
6433;BME280;3249;42.690;23.260;2022-08-20T00:09:06;94113.16;;;22.69;100.00
6433;BME280;3249;42.690;23.260;2022-08-20T00:11:32;94125.72;;;22.72;100.00
6433;BME280;3249;42.690;23.260;2022-08-20T00:14:00;94113.19;;;22.56;100.00
6433;BME280;3249;42.690;23.260;2022-08-20T00:16:31;94128.53;;;22.62;100.00
6433;BME280;3249;42.690;23.260;2022-08-20T00:18:58;94126.22;;;22.47;100.00
6433;BME280;3249;42.690;23.260;2022-08-20T00:21:24;94127.47;;;22.36;100.00
6433;BME280;3249;42.690;23.260;2022-08-20T00:23:51;94124.25;;;22.53;100.00
6433;BME280;3249;42.690;23.260;2022-08-20T00:26:18;94115.31;;;22.40;100.00
6433;BME280;3249;42.690;23.260;2022-08-20T00:28:44;94125.13;;;22.21;100.00
6433;BME280;3249;42.690;23.260;2022-08-20T00:31:12;94113.94;;;22.29;100.00
6433;BME280;3249;42.690;23.260;2022-08-20T00:33:38;94103.56;;;22.24;100.00
6433;BME280;3249;42.690;23.260;2022-08-20T00:36:04;94122.69;;;22.38;100.00
6433;BME280;3249;42.690;23.260;2022-08-20T00:38:36;94122.22;;;22.36;100.00
6433;BME280;3249;42.690;23.260;2022-08-20T00:41:04;94118.03;;;22.22;100.00
6433;BME280;3249;42.690;23.260;2022-08-20T00:43:42;94123.38;;;22.30;100.00
6433;BME280;3249;42.690;23.260;2022-08-20T00:46:23;94128.22;;;22.23;100.00
6433;BME280;3249;42.690;23.260;2022-08-20T00:48:51;94119.31;;;22.24;100.00
6433;BME280;3249;42.690;23.260;2022-08-20T00:51:27;94113.44;;;22.27;100.00
6433;BME280;3249;42.690;23.260;2022-08-20T00:53:59;94107.44;;;22.27;100.00
6433;BME280;3249;42.690;23.260;2022-08-20T00:56:26;94109.50;;;22.30;100.00
6433;BME280;3249;42.690;23.260;2022-08-20T00:58:52;94097.53;;;22.24;100.00
6433;BME280;3249;42.690;23.260;2022-08-20T01:01:19;94100.03;;;22.15;100.00
6433;BME280;3249;42.690;23.260;2022-08-20T01:03:47;94098.50;;;22.14;100.00
6433;BME280;3249;42.690;23.260;2022-08-20T01:06:13;94092.97;;;22.02;100.00
6433;BME280;3249;42.690;23.260;2022-08-20T01:08:39;94074.97;;;21.82;100.00
6433;BME280;3249;42.690;23.260;2022-08-20T01:11:06;94074.59;;;21.88;100.00
6433;BME280;3249;42.690;23.260;2022-08-20T01:13:43;94086.38;;;21.59;100.00
6433;BME280;3249;42.690;23.260;2022-08-20T01:16:20;94051.84;;;21.25;100.00
6433;BME280;3249;42.690;23.260;2022-08-20T01:18:49;94086.31;;;21.45;100.00
6433;BME280;3249;42.690;23.260;2022-08-20T01:21:16;94089.09;;;21.67;100.00
6433;BME280;3249;42.690;23.260;2022-08-20T01:24:00;94085.06;;;21.75;100.00
6433;BME280;3249;42.690;23.260;2022-08-20T01:26:33;94076.66;;;21.59;100.00
6433;BME280;3249;42.690;23.260;2022-08-20T01:29:06;94071.59;;;21.49;100.00
6433;BME280;3249;42.690;23.260;2022-08-20T01:31:34;94084.41;;;21.51;100.00
6433;BME280;3249;42.690;23.260;2022-08-20T01:34:04;94071.81;;;21.53;100.00
6433;BME280;3249;42.690;23.260;2022-08-20T01:36:36;94073.44;;;21.49;100.00
6433;BME280;3249;42.690;23.260;2022-08-20T01:39:04;94072.19;;;21.46;100.00
6433;BME280;3249;42.690;23.260;2022-08-20T01:44:04;94031.34;;;21.13;100.00
6433;BME280;3249;42.690;23.260;2022-08-20T01:46:35;94057.41;;;21.37;100.00
6433;BME280;3249;42.690;23.260;2022-08-20T01:49:19;94061.81;;;21.55;100.00
6433;BME280;3249;42.690;23.260;2022-08-20T01:51:45;94068.03;;;21.59;100.00
6433;BME280;3249;42.690;23.260;2022-08-20T01:54:10;94071.81;;;21.53;100.00
6433;BME280;3249;42.690;23.260;2022-08-20T01:56:50;94059.78;;;21.52;100.00
6433;BME280;3249;42.690;23.260;2022-08-20T01:59:16;94071.50;;;21.41;100.00
6433;BME280;3249;42.690;23.260;2022-08-20T02:01:41;94068.97;;;21.36;100.00
6433;BME280;3249;42.690;23.260;2022-08-20T02:04:08;94069.84;;;21.13;100.00
6433;BME280;3249;42.690;23.260;2022-08-20T02:06:38;94064.69;;;21.08;100.00
6433;BME280;3249;42.690;23.260;2022-08-20T02:09:05;94063.56;;;21.14;100.00
6433;BME280;3249;42.690;23.260;2022-08-20T02:11:31;94061.81;;;21.23;100.00
6433;BME280;3249;42.690;23.260;2022-08-20T02:14:00;94044.34;;;21.05;100.00
6433;BME280;3249;42.690;23.260;2022-08-20T02:16:31;94064.53;;;21.18;100.00
6433;BME280;3249;42.690;23.260;2022-08-20T02:19:00;94057.47;;;21.18;100.00
6433;BME280;3249;42.690;23.260;2022-08-20T02:21:30;94057.94;;;21.20;100.00
6433;BME280;3249;42.690;23.260;2022-08-20T02:23:56;94036.53;;;21.00;100.00
6433;BME280;3249;42.690;23.260;2022-08-20T02:26:23;94057.19;;;21.01;100.00
6433;BME280;3249;42.690;23.260;2022-08-20T02:28:50;94054.66;;;20.96;100.00
6433;BME280;3249;42.690;23.260;2022-08-20T02:31:18;94042.69;;;20.90;100.00
6433;BME280;3249;42.690;23.260;2022-08-20T02:33:44;94036.69;;;20.90;100.00
6433;BME280;3249;42.690;23.260;2022-08-20T02:36:11;94060.03;;;21.05;100.00
6433;BME280;3249;42.690;23.260;2022-08-20T02:38:38;94065.97;;;20.92;100.00
6433;BME280;3249;42.690;23.260;2022-08-20T02:41:04;94060.44;;;20.75;100.00
6433;BME280;3249;42.690;23.260;2022-08-20T02:43:29;94048.50;;;20.87;100.00
6433;BME280;3249;42.690;23.260;2022-08-20T02:45:56;94055.38;;;21.02;100.00
6433;BME280;3249;42.690;23.260;2022-08-20T02:48:22;94063.50;;;21.00;100.00
6433;BME280;3249;42.690;23.260;2022-08-20T02:50:58;94059.63;;;20.98;100.00
6433;BME280;3249;42.690;23.260;2022-08-20T02:53:25;94071.50;;;21.09;100.00
6433;BME280;3249;42.690;23.260;2022-08-20T02:55:51;94065.28;;;21.05;100.00
6433;BME280;3249;42.690;23.260;2022-08-20T02:58:18;94063.50;;;21.00;100.00
6433;BME280;3249;42.690;23.260;2022-08-20T03:00:44;94055.22;;;20.93;100.00
6433;BME280;3249;42.690;23.260;2022-08-20T03:03:11;94071.34;;;20.82;100.00
6433;BME280;3249;42.690;23.260;2022-08-20T03:05:39;94076.66;;;20.95;100.00
6433;BME280;3249;42.690;23.260;2022-08-20T03:08:06;94062.72;;;21.00;100.00
6433;BME280;3249;42.690;23.260;2022-08-20T03:10:34;94068.38;;;20.70;100.00
6433;BME280;3249;42.690;23.260;2022-08-20T03:13:00;94063.13;;;20.33;100.00
6433;BME280;3249;42.690;23.260;2022-08-20T03:15:28;94062.97;;;20.43;100.00
6433;BME280;3249;42.690;23.260;2022-08-20T03:17:53;94063.84;;;20.57;100.00
6433;BME280;3249;42.690;23.260;2022-08-20T03:20:19;94071.91;;;20.79;100.00
6433;BME280;3249;42.690;23.260;2022-08-20T03:22:44;94077.28;;;20.87;100.00
6433;BME280;3249;42.690;23.260;2022-08-20T03:25:10;94061.34;;;20.84;100.00
6433;BME280;3249;42.690;23.260;2022-08-20T03:27:36;94080.47;;;21.03;100.00
6433;BME280;3249;42.690;23.260;2022-08-20T03:30:05;94073.03;;;21.10;100.00
6433;BME280;3249;42.690;23.260;2022-08-20T03:32:31;94064.00;;;21.02;100.00
6433;BME280;3249;42.690;23.260;2022-08-20T03:34:56;94054.94;;;20.95;100.00
6433;BME280;3249;42.690;23.260;2022-08-20T03:37:29;94081.31;;;21.17;100.00
6433;BME280;3249;42.690;23.260;2022-08-20T03:39:55;94081.88;;;21.14;100.00
6433;BME280;3249;42.690;23.260;2022-08-20T03:42:20;94085.22;;;21.01;100.00
6433;BME280;3249;42.690;23.260;2022-08-20T03:44:46;94067.94;;;20.44;100.00
6433;BME280;3249;42.690;23.260;2022-08-20T03:47:12;94081.88;;;20.58;100.00
6433;BME280;3249;42.690;23.260;2022-08-20T03:49:38;94083.81;;;20.48;100.00
6433;BME280;3249;42.690;23.260;2022-08-20T03:52:04;94093.09;;;20.59;100.00
6433;BME280;3249;42.690;23.260;2022-08-20T03:54:29;94092.97;;;20.69;100.00
6433;BME280;3249;42.690;23.260;2022-08-20T03:56:55;94103.38;;;20.74;100.00
6433;BME280;3249;42.690;23.260;2022-08-20T03:59:20;94084.19;;;20.60;100.00
6433;BME280;3249;42.690;23.260;2022-08-20T04:01:46;94098.22;;;20.69;100.00
6433;BME280;3249;42.690;23.260;2022-08-20T04:04:11;94090.66;;;20.67;100.00
6433;BME280;3249;42.690;23.260;2022-08-20T04:06:37;94092.34;;;20.77;100.00
6433;BME280;3249;42.690;23.260;2022-08-20T04:09:03;94093.25;;;20.86;100.00
6433;BME280;3249;42.690;23.260;2022-08-20T04:11:28;94099.47;;;20.90;100.00
6433;BME280;3249;42.690;23.260;2022-08-20T04:13:54;94099.44;;;20.95;100.00
6433;BME280;3249;42.690;23.260;2022-08-20T04:16:19;94097.59;;;20.95;100.00
6433;BME280;3249;42.690;23.260;2022-08-20T04:18:45;94090.69;;;20.44;100.00
6433;BME280;3249;42.690;23.260;2022-08-20T04:21:13;94095.88;;;20.67;100.00
6433;BME280;3249;42.690;23.260;2022-08-20T04:23:39;94104.09;;;20.79;100.00
6433;BME280;3249;42.690;23.260;2022-08-20T04:26:04;94096.31;;;20.74;100.00
6433;BME280;3249;42.690;23.260;2022-08-20T04:28:30;94110.34;;;21.02;100.00
6433;BME280;3249;42.690;23.260;2022-08-20T04:30:59;94097.94;;;21.07;100.00
6433;BME280;3249;42.690;23.260;2022-08-20T04:33:27;94083.00;;;20.71;100.00
6433;BME280;3249;42.690;23.260;2022-08-20T04:35:53;94080.81;;;20.78;100.00
6433;BME280;3249;42.690;23.260;2022-08-20T04:38:21;94099.28;;;21.05;100.00
6433;BME280;3249;42.690;23.260;2022-08-20T04:40:47;94106.09;;;21.38;100.00
6433;BME280;3249;42.690;23.260;2022-08-20T04:43:24;94099.00;;;21.57;100.00
6433;BME280;3249;42.690;23.260;2022-08-20T04:45:51;94110.00;;;21.72;100.00
6433;BME280;3249;42.690;23.260;2022-08-20T04:48:18;94106.53;;;21.77;100.00
6433;BME280;3249;42.690;23.260;2022-08-20T04:50:44;94106.09;;;21.70;100.00
6433;BME280;3249;42.690;23.260;2022-08-20T04:53:14;94091.19;;;21.70;100.00
6433;BME280;3249;42.690;23.260;2022-08-20T04:55:42;94080.41;;;21.72;100.00
6433;BME280;3249;42.690;23.260;2022-08-20T05:00:38;94102.88;;;22.32;100.00
6433;BME280;3249;42.690;23.260;2022-08-20T05:03:05;94113.75;;;22.53;100.00
6433;BME280;3249;42.690;23.260;2022-08-20T05:05:33;94109.97;;;22.72;100.00
6433;BME280;3249;42.690;23.260;2022-08-20T05:08:02;94115.84;;;22.91;100.00
6433;BME280;3249;42.690;23.260;2022-08-20T05:10:28;94119.56;;;23.12;100.00
6433;BME280;3249;42.690;23.260;2022-08-20T05:12:54;94122.56;;;23.19;100.00
6433;BME280;3249;42.690;23.260;2022-08-20T05:15:19;94117.94;;;23.38;100.00
6433;BME280;3249;42.690;23.260;2022-08-20T05:17:45;94117.59;;;23.53;100.00
6433;BME280;3249;42.690;23.260;2022-08-20T05:20:14;94116.28;;;23.64;100.00
6433;BME280;3249;42.690;23.260;2022-08-20T05:22:40;94108.75;;;23.71;100.00
6433;BME280;3249;42.690;23.260;2022-08-20T05:25:06;94112.34;;;23.84;100.00
6433;BME280;3249;42.690;23.260;2022-08-20T05:27:32;94111.19;;;23.68;100.00
6433;BME280;3249;42.690;23.260;2022-08-20T05:30:04;94106.31;;;23.83;100.00
6433;BME280;3249;42.690;23.260;2022-08-20T05:32:33;94117.00;;;24.09;100.00
6433;BME280;3249;42.690;23.260;2022-08-20T05:35:00;94110.81;;;24.13;100.00
6433;BME280;3249;42.690;23.260;2022-08-20T05:37:25;94117.22;;;24.29;100.00
6433;BME280;3249;42.690;23.260;2022-08-20T05:39:51;94099.50;;;24.04;100.00
6433;BME280;3249;42.690;23.260;2022-08-20T05:42:16;94104.47;;;23.84;100.00
6433;BME280;3249;42.690;23.260;2022-08-20T05:44:41;94104.53;;;23.92;100.00
6433;BME280;3249;42.690;23.260;2022-08-20T05:47:08;94114.31;;;24.00;100.00
6433;BME280;3249;42.690;23.260;2022-08-20T05:49:34;94122.31;;;24.26;100.00
6433;BME280;3249;42.690;23.260;2022-08-20T05:51:59;94109.91;;;23.87;100.00
6433;BME280;3249;42.690;23.260;2022-08-20T05:54:25;94113.44;;;24.13;100.00
6433;BME280;3249;42.690;23.260;2022-08-20T05:56:50;94098.44;;;24.14;100.00
6433;BME280;3249;42.690;23.260;2022-08-20T05:59:16;94102.25;;;24.38;100.00
6433;BME280;3249;42.690;23.260;2022-08-20T06:01:42;94103.38;;;24.54;100.00
6433;BME280;3249;42.690;23.260;2022-08-20T06:04:08;94105.16;;;24.84;100.00
6433;BME280;3249;42.690;23.260;2022-08-20T06:07:10;94108.75;;;25.05;100.00
6433;BME280;3249;42.690;23.260;2022-08-20T06:09:36;94111.69;;;25.21;100.00
6433;BME280;3249;42.690;23.260;2022-08-20T06:12:04;94108.28;;;25.46;100.00
6433;BME280;3249;42.690;23.260;2022-08-20T06:14:31;94110.78;;;25.25;100.00
6433;BME280;3249;42.690;23.260;2022-08-20T06:17:09;94120.38;;;25.21;100.00
6433;BME280;3249;42.690;23.260;2022-08-20T06:19:36;94120.50;;;24.99;100.00
6433;BME280;3249;42.690;23.260;2022-08-20T06:22:02;94114.94;;;24.92;100.00
6433;BME280;3249;42.690;23.260;2022-08-20T06:24:28;94110.59;;;24.96;100.00
6433;BME280;3249;42.690;23.260;2022-08-20T06:26:55;94096.44;;;24.67;100.00
6433;BME280;3249;42.690;23.260;2022-08-20T06:29:21;94094.84;;;24.49;100.00
6433;BME280;3249;42.690;23.260;2022-08-20T06:31:46;94095.59;;;24.41;100.00
6433;BME280;3249;42.690;23.260;2022-08-20T06:34:11;94100.41;;;24.47;100.00
6433;BME280;3249;42.690;23.260;2022-08-20T06:36:37;94101.38;;;24.60;100.00
6433;BME280;3249;42.690;23.260;2022-08-20T06:39:02;94086.09;;;24.70;100.00
6433;BME280;3249;42.690;23.260;2022-08-20T06:41:28;94095.25;;;24.90;100.00
6433;BME280;3249;42.690;23.260;2022-08-20T06:43:53;94091.06;;;24.97;100.00
6433;BME280;3249;42.690;23.260;2022-08-20T06:46:19;94097.91;;;25.24;100.00
6433;BME280;3249;42.690;23.260;2022-08-20T06:48:44;94098.34;;;25.26;100.00
6433;BME280;3249;42.690;23.260;2022-08-20T06:51:10;94098.34;;;25.26;100.00
6433;BME280;3249;42.690;23.260;2022-08-20T06:53:35;94102.09;;;25.42;100.00
6433;BME280;3249;42.690;23.260;2022-08-20T06:56:02;94091.34;;;25.72;100.00
6433;BME280;3249;42.690;23.260;2022-08-20T06:58:28;94087.09;;;25.88;100.00
6433;BME280;3249;42.690;23.260;2022-08-20T07:00:55;94098.66;;;26.22;98.93
6433;BME280;3249;42.690;23.260;2022-08-20T07:03:21;94086.16;;;26.39;97.53
6433;BME280;3249;42.690;23.260;2022-08-20T07:05:46;94066.50;;;26.28;97.34
6433;BME280;3249;42.690;23.260;2022-08-20T07:08:13;94086.69;;;26.62;95.75
6433;BME280;3249;42.690;23.260;2022-08-20T07:10:41;94085.28;;;26.64;94.97
6433;BME280;3249;42.690;23.260;2022-08-20T07:13:08;94086.38;;;26.63;95.64
6433;BME280;3249;42.690;23.260;2022-08-20T07:15:34;94055.72;;;26.42;100.00
6433;BME280;3249;42.690;23.260;2022-08-20T07:18:01;94074.72;;;26.64;97.14
6433;BME280;3249;42.690;23.260;2022-08-20T07:20:30;94074.00;;;26.76;97.50
6433;BME280;3249;42.690;23.260;2022-08-20T07:22:57;94080.97;;;26.80;95.81
6433;BME280;3249;42.690;23.260;2022-08-20T07:25:23;94074.34;;;26.95;95.00
6433;BME280;3249;42.690;23.260;2022-08-20T07:27:49;94082.28;;;26.95;94.04
6433;BME280;3249;42.690;23.260;2022-08-20T07:30:22;94079.03;;;26.69;99.56
6433;BME280;3249;42.690;23.260;2022-08-20T07:33:07;94082.75;;;26.39;97.74
6433;BME280;3249;42.690;23.260;2022-08-20T07:35:33;94060.59;;;26.52;95.87
6433;BME280;3249;42.690;23.260;2022-08-20T07:37:58;94079.13;;;27.01;94.93
6433;BME280;3249;42.690;23.260;2022-08-20T07:40:27;94086.66;;;27.32;92.12
6433;BME280;3249;42.690;23.260;2022-08-20T07:42:54;94082.41;;;27.39;91.17
6433;BME280;3249;42.690;23.260;2022-08-20T07:45:20;94080.56;;;27.52;89.75
6433;BME280;3249;42.690;23.260;2022-08-20T07:47:46;94080.63;;;27.64;89.23
6433;BME280;3249;42.690;23.260;2022-08-20T07:50:15;94071.34;;;27.90;88.46
6433;BME280;3249;42.690;23.260;2022-08-20T07:52:41;94080.53;;;28.05;88.16
6433;BME280;3249;42.690;23.260;2022-08-20T07:55:12;94080.94;;;28.07;85.82
6433;BME280;3249;42.690;23.260;2022-08-20T07:57:38;94086.06;;;28.12;84.12
6433;BME280;3249;42.690;23.260;2022-08-20T08:00:07;94080.41;;;28.13;83.86
6433;BME280;3249;42.690;23.260;2022-08-20T08:02:33;94084.47;;;27.99;87.56
6433;BME280;3249;42.690;23.260;2022-08-20T08:04:59;94086.69;;;28.09;84.17
6433;BME280;3249;42.690;23.260;2022-08-20T08:07:26;94081.75;;;28.07;84.21
6433;BME280;3249;42.690;23.260;2022-08-20T08:09:53;94086.94;;;28.28;83.54
6433;BME280;3249;42.690;23.260;2022-08-20T08:12:19;94059.78;;;28.31;85.27
6433;BME280;3249;42.690;23.260;2022-08-20T08:14:46;94082.19;;;28.21;84.73
6433;BME280;3249;42.690;23.260;2022-08-20T08:17:13;94084.31;;;28.40;82.56
6433;BME280;3249;42.690;23.260;2022-08-20T08:19:42;94077.59;;;28.42;82.28
6433;BME280;3249;42.690;23.260;2022-08-20T08:22:10;94074.28;;;28.45;81.91
6433;BME280;3249;42.690;23.260;2022-08-20T08:24:38;94076.38;;;28.52;84.52
6433;BME280;3249;42.690;23.260;2022-08-20T08:27:04;94051.63;;;28.24;84.71
6433;BME280;3249;42.690;23.260;2022-08-20T08:29:29;94063.00;;;28.60;84.59
6433;BME280;3249;42.690;23.260;2022-08-20T08:31:55;94073.25;;;28.74;80.85
6433;BME280;3249;42.690;23.260;2022-08-20T08:34:21;94075.91;;;28.74;79.63
6433;BME280;3249;42.690;23.260;2022-08-20T08:36:50;94053.25;;;28.76;78.76
6433;BME280;3249;42.690;23.260;2022-08-20T08:39:15;94074.56;;;28.92;78.94
6433;BME280;3249;42.690;23.260;2022-08-20T08:41:44;94068.59;;;29.07;77.82
6433;BME280;3249;42.690;23.260;2022-08-20T08:44:19;94059.25;;;29.25;76.28
6433;BME280;3249;42.690;23.260;2022-08-20T08:47:00;94066.38;;;29.36;75.61
6433;BME280;3249;42.690;23.260;2022-08-20T08:49:30;94054.81;;;29.29;75.38
6433;BME280;3249;42.690;23.260;2022-08-20T08:54:52;94055.81;;;29.52;72.69
6433;BME280;3249;42.690;23.260;2022-08-20T08:57:18;94053.31;;;29.71;72.64
6433;BME280;3249;42.690;23.260;2022-08-20T08:59:44;94046.22;;;29.91;70.78
6433;BME280;3249;42.690;23.260;2022-08-20T09:02:17;94049.72;;;29.95;70.45
6433;BME280;3249;42.690;23.260;2022-08-20T09:04:44;94050.44;;;30.07;70.46
6433;BME280;3249;42.690;23.260;2022-08-20T09:07:13;94039.09;;;30.10;69.42
6433;BME280;3249;42.690;23.260;2022-08-20T09:09:41;94042.72;;;30.33;67.01
6433;BME280;3249;42.690;23.260;2022-08-20T09:12:19;94046.41;;;30.44;66.35
6433;BME280;3249;42.690;23.260;2022-08-20T09:14:47;94051.03;;;30.32;64.99
6433;BME280;3249;42.690;23.260;2022-08-20T09:17:13;94031.41;;;30.05;66.67
6433;BME280;3249;42.690;23.260;2022-08-20T09:19:39;94048.47;;;30.04;68.56
6433;BME280;3249;42.690;23.260;2022-08-20T09:22:13;94034.50;;;30.07;68.99
6433;BME280;3249;42.690;23.260;2022-08-20T09:24:40;94052.09;;;30.27;68.74
6433;BME280;3249;42.690;23.260;2022-08-20T09:27:05;94047.78;;;30.38;68.06
6433;BME280;3249;42.690;23.260;2022-08-20T09:29:31;94039.59;;;30.62;66.42
6433;BME280;3249;42.690;23.260;2022-08-20T09:32:17;94033.34;;;30.55;65.24
6433;BME280;3249;42.690;23.260;2022-08-20T09:34:46;94028.31;;;30.50;66.23
6433;BME280;3249;42.690;23.260;2022-08-20T09:37:13;94030.28;;;30.53;67.52
6433;BME280;3249;42.690;23.260;2022-08-20T09:39:39;94023.69;;;30.47;65.87
6433;BME280;3249;42.690;23.260;2022-08-20T09:42:16;94029.31;;;30.61;64.58
6433;BME280;3249;42.690;23.260;2022-08-20T09:44:42;94026.50;;;29.76;68.81
6433;BME280;3249;42.690;23.260;2022-08-20T09:47:08;94021.47;;;29.71;73.10
6433;BME280;3249;42.690;23.260;2022-08-20T09:49:35;94027.53;;;29.72;69.77
6433;BME280;3249;42.690;23.260;2022-08-20T09:52:02;94031.31;;;29.86;71.65
6433;BME280;3249;42.690;23.260;2022-08-20T09:54:29;94016.06;;;29.67;69.74
6433;BME280;3249;42.690;23.260;2022-08-20T09:57:00;94004.88;;;29.46;65.33
6433;BME280;3249;42.690;23.260;2022-08-20T09:59:27;94020.34;;;29.72;65.08
6433;BME280;3249;42.690;23.260;2022-08-20T10:01:53;94024.13;;;30.02;62.37
6433;BME280;3249;42.690;23.260;2022-08-20T10:04:19;94027.63;;;30.06;62.15
6433;BME280;3249;42.690;23.260;2022-08-20T10:06:44;94009.25;;;30.29;61.20
6433;BME280;3249;42.690;23.260;2022-08-20T10:09:10;94018.47;;;30.50;61.43
6433;BME280;3249;42.690;23.260;2022-08-20T10:11:35;94029.91;;;30.70;59.56
6433;BME280;3249;42.690;23.260;2022-08-20T10:14:01;94019.31;;;30.54;59.95
6433;BME280;3249;42.690;23.260;2022-08-20T10:16:26;94019.31;;;30.39;57.86
6433;BME280;3249;42.690;23.260;2022-08-20T10:18:51;94021.97;;;30.54;57.41
6433;BME280;3249;42.690;23.260;2022-08-20T10:21:17;94017.41;;;30.70;57.50
6433;BME280;3249;42.690;23.260;2022-08-20T10:23:43;94024.50;;;31.01;54.91
6433;BME280;3249;42.690;23.260;2022-08-20T10:26:09;94024.75;;;31.30;55.03
6433;BME280;3249;42.690;23.260;2022-08-20T10:28:35;94018.78;;;31.37;54.44
6433;BME280;3249;42.690;23.260;2022-08-20T10:31:01;94015.78;;;31.38;54.23
6433;BME280;3249;42.690;23.260;2022-08-20T10:33:28;94005.03;;;30.97;56.83
6433;BME280;3249;42.690;23.260;2022-08-20T10:35:54;94005.88;;;30.82;54.67
6433;BME280;3249;42.690;23.260;2022-08-20T10:38:19;94002.63;;;31.26;52.99
6433;BME280;3249;42.690;23.260;2022-08-20T10:40:45;93997.47;;;30.99;55.01
6433;BME280;3249;42.690;23.260;2022-08-20T10:43:10;93992.88;;;30.96;54.00
6433;BME280;3249;42.690;23.260;2022-08-20T10:45:35;93994.81;;;30.80;56.21
6433;BME280;3249;42.690;23.260;2022-08-20T10:48:01;93982.84;;;30.89;57.05
6433;BME280;3249;42.690;23.260;2022-08-20T10:50:27;93989.97;;;31.04;55.85
6433;BME280;3249;42.690;23.260;2022-08-20T10:52:52;93999.81;;;31.38;53.69
6433;BME280;3249;42.690;23.260;2022-08-20T10:55:18;93987.16;;;31.54;55.32
6433;BME280;3249;42.690;23.260;2022-08-20T10:57:44;93977.09;;;31.44;53.01
6433;BME280;3249;42.690;23.260;2022-08-20T11:00:15;93987.06;;;31.92;52.19
6433;BME280;3249;42.690;23.260;2022-08-20T11:02:41;93992.53;;;31.99;52.09
6433;BME280;3249;42.690;23.260;2022-08-20T11:05:06;93966.69;;;31.77;52.43
6433;BME280;3249;42.690;23.260;2022-08-20T11:07:36;93981.94;;;32.29;49.62
6433;BME280;3249;42.690;23.260;2022-08-20T11:10:03;93989.41;;;32.42;47.77
6433;BME280;3249;42.690;23.260;2022-08-20T11:12:29;93980.78;;;32.52;47.76
6433;BME280;3249;42.690;23.260;2022-08-20T11:14:55;93980.34;;;32.76;49.39
6433;BME280;3249;42.690;23.260;2022-08-20T11:17:23;93980.25;;;32.69;45.94
6433;BME280;3249;42.690;23.260;2022-08-20T11:19:50;93978.09;;;32.78;45.86
6433;BME280;3249;42.690;23.260;2022-08-20T11:22:16;93984.47;;;33.00;45.10
6433;BME280;3249;42.690;23.260;2022-08-20T11:24:41;93971.22;;;32.77;44.91
6433;BME280;3249;42.690;23.260;2022-08-20T11:27:07;93965.66;;;32.34;45.65
6433;BME280;3249;42.690;23.260;2022-08-20T11:29:37;93961.34;;;32.52;46.31
6433;BME280;3249;42.690;23.260;2022-08-20T11:32:04;93952.13;;;32.20;47.15
6433;BME280;3249;42.690;23.260;2022-08-20T11:34:30;93941.44;;;31.94;48.45
6433;BME280;3249;42.690;23.260;2022-08-20T11:36:55;93923.22;;;31.96;48.87
6433;BME280;3249;42.690;23.260;2022-08-20T11:39:21;93943.50;;;32.56;47.56
6433;BME280;3249;42.690;23.260;2022-08-20T11:41:46;93943.84;;;32.51;47.14
6433;BME280;3249;42.690;23.260;2022-08-20T11:44:12;93939.66;;;32.53;47.00
6433;BME280;3249;42.690;23.260;2022-08-20T11:46:37;93943.13;;;32.83;44.89
6433;BME280;3249;42.690;23.260;2022-08-20T11:49:03;93933.81;;;32.18;49.17
6433;BME280;3249;42.690;23.260;2022-08-20T11:51:29;93928.69;;;32.06;48.14
6433;BME280;3249;42.690;23.260;2022-08-20T11:53:54;93936.72;;;32.10;50.74
6433;BME280;3249;42.690;23.260;2022-08-20T11:56:19;93934.63;;;31.96;50.20
6433;BME280;3249;42.690;23.260;2022-08-20T11:58:45;93930.78;;;31.71;50.02
6433;BME280;3249;42.690;23.260;2022-08-20T12:01:11;93937.75;;;32.02;46.79
6433;BME280;3249;42.690;23.260;2022-08-20T12:03:37;93935.47;;;31.78;46.12
6433;BME280;3249;42.690;23.260;2022-08-20T12:06:03;93942.03;;;31.61;47.22
6433;BME280;3249;42.690;23.260;2022-08-20T12:08:28;93944.56;;;31.32;47.26
6433;BME280;3249;42.690;23.260;2022-08-20T12:10:58;93938.25;;;31.02;48.50
6433;BME280;3249;42.690;23.260;2022-08-20T12:13:26;93931.81;;;30.65;51.62
6433;BME280;3249;42.690;23.260;2022-08-20T12:15:54;93923.72;;;30.77;51.38
6433;BME280;3249;42.690;23.260;2022-08-20T12:18:20;93940.47;;;30.62;54.25
6433;BME280;3249;42.690;23.260;2022-08-20T12:20:46;93946.28;;;30.48;52.64
6433;BME280;3249;42.690;23.260;2022-08-20T12:23:11;93947.34;;;30.28;52.79
6433;BME280;3249;42.690;23.260;2022-08-20T12:25:37;93933.03;;;30.33;53.88
6433;BME280;3249;42.690;23.260;2022-08-20T12:28:03;93944.41;;;30.14;53.18
6433;BME280;3249;42.690;23.260;2022-08-20T12:30:30;93934.09;;;30.13;56.40
6433;BME280;3249;42.690;23.260;2022-08-20T12:32:56;93932.66;;;30.15;58.57
6433;BME280;3249;42.690;23.260;2022-08-20T12:35:22;93942.50;;;30.15;58.06
6433;BME280;3249;42.690;23.260;2022-08-20T12:37:48;93935.69;;;30.33;57.49
6433;BME280;3249;42.690;23.260;2022-08-20T12:40:16;93948.31;;;30.20;58.85
6433;BME280;3249;42.690;23.260;2022-08-20T12:42:42;93940.84;;;30.10;56.87
6433;BME280;3249;42.690;23.260;2022-08-20T12:45:08;93943.94;;;30.12;60.55
6433;BME280;3249;42.690;23.260;2022-08-20T12:47:37;93935.34;;;30.34;56.52
6433;BME280;3249;42.690;23.260;2022-08-20T12:50:07;93959.94;;;30.31;64.70
6433;BME280;3249;42.690;23.260;2022-08-20T12:52:33;93946.09;;;29.76;69.28
6433;BME280;3249;42.690;23.260;2022-08-20T12:54:59;93949.41;;;29.57;71.01
6433;BME280;3249;42.690;23.260;2022-08-20T12:57:28;93943.81;;;29.15;72.10
6433;BME280;3249;42.690;23.260;2022-08-20T12:59:55;93921.22;;;28.94;74.22
6433;BME280;3249;42.690;23.260;2022-08-20T13:02:21;93904.09;;;28.76;74.45
6433;BME280;3249;42.690;23.260;2022-08-20T13:04:46;93910.53;;;28.90;76.14
6433;BME280;3249;42.690;23.260;2022-08-20T13:07:13;93885.53;;;28.76;76.19
6433;BME280;3249;42.690;23.260;2022-08-20T13:09:39;93895.91;;;28.96;75.88
6433;BME280;3249;42.690;23.260;2022-08-20T13:12:05;93897.59;;;29.16;85.35
6433;BME280;3249;42.690;23.260;2022-08-20T13:14:31;93883.34;;;29.21;85.73